sensor_id;sensor_type;location;lat;lon;timestamp;pressure;altitude;pressure_sealevel;temperature;humidity
63568;BME280;49715;42.386;20.434;2023-02-17T00:00:25;98496.25;;;6.04;47.71
63568;BME280;49715;42.386;20.434;2023-02-17T00:02:54;98494.31;;;5.93;47.96
63568;BME280;49715;42.386;20.434;2023-02-17T00:05:21;98496.16;;;5.77;49.67
63568;BME280;49715;42.386;20.434;2023-02-17T00:07:47;98505.69;;;5.64;48.28
63568;BME280;49715;42.386;20.434;2023-02-17T00:10:13;98501.94;;;5.54;48.48
63568;BME280;49715;42.386;20.434;2023-02-17T00:12:39;98503.34;;;5.45;48.39
63568;BME280;49715;42.386;20.434;2023-02-17T00:15:06;98504.09;;;5.33;48.24
63568;BME280;49715;42.386;20.434;2023-02-17T00:17:32;98507.97;;;5.26;48.69
63568;BME280;49715;42.386;20.434;2023-02-17T00:19:58;98509.19;;;5.20;48.57
63568;BME280;49715;42.386;20.434;2023-02-17T00:22:25;98504.53;;;5.25;49.26
63568;BME280;49715;42.386;20.434;2023-02-17T00:24:51;98508.66;;;5.29;49.02
63568;BME280;49715;42.386;20.434;2023-02-17T00:27:17;98506.97;;;5.28;48.95
63568;BME280;49715;42.386;20.434;2023-02-17T00:29:44;98506.41;;;5.23;49.06
63568;BME280;49715;42.386;20.434;2023-02-17T00:32:10;98511.06;;;5.18;49.10
63568;BME280;49715;42.386;20.434;2023-02-17T00:34:36;98517.41;;;5.14;48.54
63568;BME280;49715;42.386;20.434;2023-02-17T00:37:03;98523.16;;;5.05;49.20
63568;BME280;49715;42.386;20.434;2023-02-17T00:39:29;98524.44;;;4.98;49.28
63568;BME280;49715;42.386;20.434;2023-02-17T00:41:55;98520.50;;;4.90;48.98
63568;BME280;49715;42.386;20.434;2023-02-17T00:44:23;98517.31;;;4.85;49.71
63568;BME280;49715;42.386;20.434;2023-02-17T00:46:51;98525.25;;;4.84;49.46
63568;BME280;49715;42.386;20.434;2023-02-17T00:49:20;98512.34;;;4.81;49.48
63568;BME280;49715;42.386;20.434;2023-02-17T00:51:46;98513.38;;;4.78;48.78
63568;BME280;49715;42.386;20.434;2023-02-17T00:54:13;98513.72;;;4.72;49.37
63568;BME280;49715;42.386;20.434;2023-02-17T00:56:39;98513.06;;;4.69;50.27
63568;BME280;49715;42.386;20.434;2023-02-17T00:59:05;98514.19;;;4.64;49.69
63568;BME280;49715;42.386;20.434;2023-02-17T01:01:32;98516.09;;;4.61;49.81
63568;BME280;49715;42.386;20.434;2023-02-17T01:04:01;98513.66;;;4.58;49.95
63568;BME280;49715;42.386;20.434;2023-02-17T01:06:29;98502.63;;;4.53;49.65
63568;BME280;49715;42.386;20.434;2023-02-17T01:08:56;98503.91;;;4.46;49.66
63568;BME280;49715;42.386;20.434;2023-02-17T01:11:23;98506.44;;;4.47;49.44
63568;BME280;49715;42.386;20.434;2023-02-17T01:13:50;98497.66;;;4.48;50.05
63568;BME280;49715;42.386;20.434;2023-02-17T01:16:17;98492.38;;;4.50;49.48
63568;BME280;49715;42.386;20.434;2023-02-17T01:18:44;98491.72;;;4.46;49.74
63568;BME280;49715;42.386;20.434;2023-02-17T01:21:23;98490.19;;;4.42;49.71
63568;BME280;49715;42.386;20.434;2023-02-17T01:23:50;98487.09;;;4.35;49.67
63568;BME280;49715;42.386;20.434;2023-02-17T01:26:18;98489.13;;;4.30;49.78
63568;BME280;49715;42.386;20.434;2023-02-17T01:28:45;98487.69;;;4.25;49.86
63568;BME280;49715;42.386;20.434;2023-02-17T01:31:12;98483.16;;;4.12;49.95
63568;BME280;49715;42.386;20.434;2023-02-17T01:33:38;98490.88;;;4.14;50.17
63568;BME280;49715;42.386;20.434;2023-02-17T01:36:08;98489.63;;;4.05;50.39
63568;BME280;49715;42.386;20.434;2023-02-17T01:38:34;98491.56;;;4.02;50.61
63568;BME280;49715;42.386;20.434;2023-02-17T01:41:01;98493.59;;;3.97;50.34
63568;BME280;49715;42.386;20.434;2023-02-17T01:43:27;98484.47;;;3.88;50.72
63568;BME280;49715;42.386;20.434;2023-02-17T01:45:54;98486.59;;;3.81;50.55
63568;BME280;49715;42.386;20.434;2023-02-17T01:48:24;98473.94;;;3.74;51.21
63568;BME280;49715;42.386;20.434;2023-02-17T01:50:52;98484.63;;;3.69;53.46
63568;BME280;49715;42.386;20.434;2023-02-17T01:53:21;98472.63;;;3.67;51.39
63568;BME280;49715;42.386;20.434;2023-02-17T01:55:47;98470.06;;;3.65;50.94
63568;BME280;49715;42.386;20.434;2023-02-17T01:58:15;98480.50;;;3.65;51.38
63568;BME280;49715;42.386;20.434;2023-02-17T02:00:43;98475.28;;;3.65;50.94
63568;BME280;49715;42.386;20.434;2023-02-17T02:03:10;98480.44;;;3.67;50.11
63568;BME280;49715;42.386;20.434;2023-02-17T02:05:38;98477.88;;;3.65;50.97
63568;BME280;49715;42.386;20.434;2023-02-17T02:08:05;98473.44;;;3.67;51.25
63568;BME280;49715;42.386;20.434;2023-02-17T02:10:32;98476.13;;;3.66;50.55
63568;BME280;49715;42.386;20.434;2023-02-17T02:12:58;98477.16;;;3.63;51.19
63568;BME280;49715;42.386;20.434;2023-02-17T02:15:25;98470.16;;;3.64;51.62
63568;BME280;49715;42.386;20.434;2023-02-17T02:30:49;98465.53;;;3.53;51.61
63568;BME280;49715;42.386;20.434;2023-02-17T02:33:21;98464.94;;;3.48;51.50
63568;BME280;49715;42.386;20.434;2023-02-17T02:41:02;98469.19;;;3.16;51.85
63568;BME280;49715;42.386;20.434;2023-02-17T02:43:29;98476.72;;;3.04;51.87
63568;BME280;49715;42.386;20.434;2023-02-17T02:45:57;98472.59;;;3.00;52.16
63568;BME280;49715;42.386;20.434;2023-02-17T02:48:24;98481.34;;;2.99;51.78
63568;BME280;49715;42.386;20.434;2023-02-17T02:58:17;98482.66;;;2.73;52.08
63568;BME280;49715;42.386;20.434;2023-02-17T03:00:51;98488.69;;;2.74;52.36
63568;BME280;49715;42.386;20.434;2023-02-17T03:08:37;98487.16;;;2.70;52.34
63568;BME280;49715;42.386;20.434;2023-02-17T03:11:03;98490.59;;;2.70;52.29
63568;BME280;49715;42.386;20.434;2023-02-17T03:13:33;98496.72;;;2.69;52.16
63568;BME280;49715;42.386;20.434;2023-02-17T03:16:05;98488.00;;;2.70;52.60
63568;BME280;49715;42.386;20.434;2023-02-17T03:18:33;98494.88;;;2.71;52.94
63568;BME280;49715;42.386;20.434;2023-02-17T03:21:05;98481.94;;;2.70;51.91
63568;BME280;49715;42.386;20.434;2023-02-17T03:23:35;98481.09;;;2.69;52.62
63568;BME280;49715;42.386;20.434;2023-02-17T03:26:01;98487.22;;;2.68;52.42
63568;BME280;49715;42.386;20.434;2023-02-17T03:28:28;98470.75;;;2.68;52.21
63568;BME280;49715;42.386;20.434;2023-02-17T03:30:54;98479.34;;;2.70;52.72
63568;BME280;49715;42.386;20.434;2023-02-17T03:33:20;98478.34;;;2.72;53.29
63568;BME280;49715;42.386;20.434;2023-02-17T03:35:47;98479.03;;;2.76;52.89
63568;BME280;49715;42.386;20.434;2023-02-17T03:38:13;98480.47;;;2.81;54.83
63568;BME280;49715;42.386;20.434;2023-02-17T03:40:39;98484.31;;;2.92;53.58
63568;BME280;49715;42.386;20.434;2023-02-17T03:43:05;98492.50;;;3.01;54.66
63568;BME280;49715;42.386;20.434;2023-02-17T03:45:34;98484.13;;;3.12;53.44
63568;BME280;49715;42.386;20.434;2023-02-17T03:48:00;98497.84;;;3.16;53.81
63568;BME280;49715;42.386;20.434;2023-02-17T03:50:26;98506.75;;;3.12;53.49
63568;BME280;49715;42.386;20.434;2023-02-17T03:52:52;98503.00;;;3.00;52.03
63568;BME280;49715;42.386;20.434;2023-02-17T03:55:18;98506.06;;;2.91;52.26
63568;BME280;49715;42.386;20.434;2023-02-17T03:57:44;98504.84;;;2.80;53.61
63568;BME280;49715;42.386;20.434;2023-02-17T04:00:11;98499.25;;;2.71;51.97
63568;BME280;49715;42.386;20.434;2023-02-17T04:02:40;98505.75;;;2.62;52.50
63568;BME280;49715;42.386;20.434;2023-02-17T04:05:06;98500.97;;;2.53;51.76
63568;BME280;49715;42.386;20.434;2023-02-17T04:07:32;98493.56;;;2.45;53.12
63568;BME280;49715;42.386;20.434;2023-02-17T04:09:59;98498.97;;;2.41;52.71
63568;BME280;49715;42.386;20.434;2023-02-17T04:12:25;98500.78;;;2.39;53.49
63568;BME280;49715;42.386;20.434;2023-02-17T04:14:51;98499.97;;;2.38;53.57
63568;BME280;49715;42.386;20.434;2023-02-17T04:17:17;98494.53;;;2.43;54.01
63568;BME280;49715;42.386;20.434;2023-02-17T04:19:43;98493.59;;;2.44;53.64
63568;BME280;49715;42.386;20.434;2023-02-17T04:22:10;98498.81;;;2.44;53.40
63568;BME280;49715;42.386;20.434;2023-02-17T04:24:36;98492.78;;;2.43;53.50
63568;BME280;49715;42.386;20.434;2023-02-17T04:27:04;98487.72;;;2.40;54.66
63568;BME280;49715;42.386;20.434;2023-02-17T04:29:31;98497.34;;;2.38;53.42
63568;BME280;49715;42.386;20.434;2023-02-17T04:31:57;98496.81;;;2.31;53.29
63568;BME280;49715;42.386;20.434;2023-02-17T04:34:23;98491.97;;;2.24;53.32
63568;BME280;49715;42.386;20.434;2023-02-17T04:36:50;98496.84;;;2.13;52.28
63568;BME280;49715;42.386;20.434;2023-02-17T04:39:16;98494.34;;;1.92;52.90
63568;BME280;49715;42.386;20.434;2023-02-17T04:41:42;98494.53;;;1.69;52.52
63568;BME280;49715;42.386;20.434;2023-02-17T04:44:08;98497.25;;;1.47;54.25
63568;BME280;49715;42.386;20.434;2023-02-17T04:46:34;98500.38;;;1.35;54.12
63568;BME280;49715;42.386;20.434;2023-02-17T04:49:00;98499.81;;;1.28;54.33
63568;BME280;49715;42.386;20.434;2023-02-17T04:51:27;98500.78;;;1.25;54.28
63568;BME280;49715;42.386;20.434;2023-02-17T04:53:53;98500.00;;;1.23;54.16
63568;BME280;49715;42.386;20.434;2023-02-17T04:56:19;98500.94;;;1.22;54.61
63568;BME280;49715;42.386;20.434;2023-02-17T04:58:45;98492.22;;;1.23;54.34
63568;BME280;49715;42.386;20.434;2023-02-17T05:01:11;98501.63;;;1.26;54.80
63568;BME280;49715;42.386;20.434;2023-02-17T05:03:38;98509.16;;;1.32;54.51
63568;BME280;49715;42.386;20.434;2023-02-17T05:06:04;98502.91;;;1.36;57.51
63568;BME280;49715;42.386;20.434;2023-02-17T05:08:30;98498.50;;;1.38;55.84
63568;BME280;49715;42.386;20.434;2023-02-17T05:10:56;98502.78;;;1.39;55.00
63568;BME280;49715;42.386;20.434;2023-02-17T05:13:22;98514.81;;;1.42;54.87
63568;BME280;49715;42.386;20.434;2023-02-17T05:15:49;98520.69;;;1.45;54.71
63568;BME280;49715;42.386;20.434;2023-02-17T05:18:15;98507.50;;;1.50;54.21
63568;BME280;49715;42.386;20.434;2023-02-17T05:20:41;98508.22;;;1.53;54.21
63568;BME280;49715;42.386;20.434;2023-02-17T05:23:07;98509.81;;;1.56;53.89
63568;BME280;49715;42.386;20.434;2023-02-17T05:25:34;98524.56;;;1.55;53.78
63568;BME280;49715;42.386;20.434;2023-02-17T05:28:00;98528.25;;;1.51;54.21
63568;BME280;49715;42.386;20.434;2023-02-17T05:30:26;98529.13;;;1.50;54.19
63568;BME280;49715;42.386;20.434;2023-02-17T05:32:53;98530.84;;;1.51;54.03
63568;BME280;49715;42.386;20.434;2023-02-17T05:35:19;98533.47;;;1.50;54.44
63568;BME280;49715;42.386;20.434;2023-02-17T05:37:45;98529.97;;;1.51;54.38
63568;BME280;49715;42.386;20.434;2023-02-17T05:40:11;98527.31;;;1.52;54.24
63568;BME280;49715;42.386;20.434;2023-02-17T05:42:37;98527.16;;;1.55;54.98
63568;BME280;49715;42.386;20.434;2023-02-17T05:45:04;98521.97;;;1.55;54.28
63568;BME280;49715;42.386;20.434;2023-02-17T05:47:30;98527.97;;;1.58;54.42
63568;BME280;49715;42.386;20.434;2023-02-17T05:49:56;98530.47;;;1.59;54.47
63568;BME280;49715;42.386;20.434;2023-02-17T05:52:22;98530.47;;;1.59;54.16
63568;BME280;49715;42.386;20.434;2023-02-17T05:54:49;98542.63;;;1.59;54.36
63568;BME280;49715;42.386;20.434;2023-02-17T05:57:16;98540.94;;;1.58;54.48
63568;BME280;49715;42.386;20.434;2023-02-17T05:59:42;98552.94;;;1.60;54.34
63568;BME280;49715;42.386;20.434;2023-02-17T06:02:08;98559.84;;;1.61;54.54
63568;BME280;49715;42.386;20.434;2023-02-17T06:04:34;98561.53;;;1.62;55.00
63568;BME280;49715;42.386;20.434;2023-02-17T06:07:01;98555.50;;;1.62;54.22
63568;BME280;49715;42.386;20.434;2023-02-17T06:09:27;98559.91;;;1.60;54.66
63568;BME280;49715;42.386;20.434;2023-02-17T06:11:53;98565.09;;;1.60;54.93
63568;BME280;49715;42.386;20.434;2023-02-17T06:14:19;98565.81;;;1.63;54.98
63568;BME280;49715;42.386;20.434;2023-02-17T06:16:45;98563.75;;;1.71;55.37
63568;BME280;49715;42.386;20.434;2023-02-17T06:19:11;98562.53;;;1.78;55.30
63568;BME280;49715;42.386;20.434;2023-02-17T06:21:38;98564.72;;;1.88;55.89
63568;BME280;49715;42.386;20.434;2023-02-17T06:24:04;98572.13;;;1.97;55.29
63568;BME280;49715;42.386;20.434;2023-02-17T06:26:30;98558.00;;;2.02;54.91
63568;BME280;49715;42.386;20.434;2023-02-17T06:28:56;98563.00;;;2.07;54.48
63568;BME280;49715;42.386;20.434;2023-02-17T06:31:23;98564.59;;;2.10;54.20
63568;BME280;49715;42.386;20.434;2023-02-17T06:33:49;98575.69;;;2.13;54.55
63568;BME280;49715;42.386;20.434;2023-02-17T06:36:15;98581.75;;;2.14;54.20
63568;BME280;49715;42.386;20.434;2023-02-17T06:38:41;98581.75;;;2.14;54.33
63568;BME280;49715;42.386;20.434;2023-02-17T06:41:08;98576.50;;;2.15;54.33
63568;BME280;49715;42.386;20.434;2023-02-17T06:43:34;98573.72;;;2.18;54.54
63568;BME280;49715;42.386;20.434;2023-02-17T06:46:00;98574.31;;;2.25;56.08
63568;BME280;49715;42.386;20.434;2023-02-17T06:48:26;98570.59;;;2.30;55.21
63568;BME280;49715;42.386;20.434;2023-02-17T06:50:52;98576.34;;;2.37;56.23
63568;BME280;49715;42.386;20.434;2023-02-17T06:53:18;98569.06;;;2.44;54.59
63568;BME280;49715;42.386;20.434;2023-02-17T06:55:47;98580.91;;;2.51;54.39
63568;BME280;49715;42.386;20.434;2023-02-17T06:58:14;98576.19;;;2.59;54.01
63568;BME280;49715;42.386;20.434;2023-02-17T07:00:40;98583.53;;;2.68;54.01
63568;BME280;49715;42.386;20.434;2023-02-17T07:03:06;98583.94;;;2.78;53.65
63568;BME280;49715;42.386;20.434;2023-02-17T07:05:36;98584.50;;;2.84;53.76
63568;BME280;49715;42.386;20.434;2023-02-17T07:08:03;98566.81;;;2.91;53.52
63568;BME280;49715;42.386;20.434;2023-02-17T07:10:29;98575.94;;;3.00;53.41
63568;BME280;49715;42.386;20.434;2023-02-17T07:12:56;98578.00;;;3.10;53.51
63568;BME280;49715;42.386;20.434;2023-02-17T07:15:22;98580.16;;;3.20;53.38
63568;BME280;49715;42.386;20.434;2023-02-17T07:17:48;98582.22;;;3.30;53.36
63568;BME280;49715;42.386;20.434;2023-02-17T07:20:14;98581.66;;;3.41;53.38
63568;BME280;49715;42.386;20.434;2023-02-17T07:22:40;98580.28;;;3.51;53.33
63568;BME280;49715;42.386;20.434;2023-02-17T07:25:07;98579.75;;;3.62;53.30
63568;BME280;49715;42.386;20.434;2023-02-17T07:27:36;98586.06;;;3.74;53.13
63568;BME280;49715;42.386;20.434;2023-02-17T07:30:02;98594.03;;;3.88;53.30
63568;BME280;49715;42.386;20.434;2023-02-17T07:32:29;98593.41;;;4.00;52.69
63568;BME280;49715;42.386;20.434;2023-02-17T07:34:55;98596.38;;;4.10;52.44
63568;BME280;49715;42.386;20.434;2023-02-17T07:37:21;98599.38;;;4.18;51.91
63568;BME280;49715;42.386;20.434;2023-02-17T07:39:47;98597.91;;;4.30;51.97
63568;BME280;49715;42.386;20.434;2023-02-17T07:42:14;98599.09;;;4.40;51.70
63568;BME280;49715;42.386;20.434;2023-02-17T07:44:40;98595.88;;;4.51;51.78
63568;BME280;49715;42.386;20.434;2023-02-17T07:47:06;98607.34;;;4.64;51.73
63568;BME280;49715;42.386;20.434;2023-02-17T07:49:32;98599.66;;;4.77;51.05
63568;BME280;49715;42.386;20.434;2023-02-17T07:51:58;98584.03;;;4.91;51.64
63568;BME280;49715;42.386;20.434;2023-02-17T07:54:24;98579.13;;;5.01;51.08
63568;BME280;49715;42.386;20.434;2023-02-17T07:56:51;98581.91;;;5.13;51.14
63568;BME280;49715;42.386;20.434;2023-02-17T07:59:17;98582.84;;;5.27;50.81
63568;BME280;49715;42.386;20.434;2023-02-17T08:01:43;98576.09;;;5.38;50.82
63568;BME280;49715;42.386;20.434;2023-02-17T08:04:09;98577.97;;;5.51;50.60
63568;BME280;49715;42.386;20.434;2023-02-17T08:06:36;98573.50;;;5.53;50.12
63568;BME280;49715;42.386;20.434;2023-02-17T08:09:03;98579.66;;;5.66;50.11
63568;BME280;49715;42.386;20.434;2023-02-17T08:11:48;98584.44;;;5.74;49.62
63568;BME280;49715;42.386;20.434;2023-02-17T08:14:33;98591.06;;;5.79;49.92
63568;BME280;49715;42.386;20.434;2023-02-17T08:16:59;98584.47;;;5.88;50.41
63568;BME280;49715;42.386;20.434;2023-02-17T08:19:25;98588.97;;;6.00;50.46
63568;BME280;49715;42.386;20.434;2023-02-17T08:21:52;98578.03;;;6.08;50.72
63568;BME280;49715;42.386;20.434;2023-02-17T08:24:18;98564.50;;;6.01;50.32
63568;BME280;49715;42.386;20.434;2023-02-17T08:26:46;98572.34;;;6.15;50.73
63568;BME280;49715;42.386;20.434;2023-02-17T08:29:12;98577.19;;;6.22;50.51
63568;BME280;49715;42.386;20.434;2023-02-17T08:31:38;98582.97;;;6.27;50.41
63568;BME280;49715;42.386;20.434;2023-02-17T08:34:05;98586.88;;;6.34;50.40
63568;BME280;49715;42.386;20.434;2023-02-17T08:36:32;98575.84;;;6.43;50.55
63568;BME280;49715;42.386;20.434;2023-02-17T08:38:58;98572.53;;;6.54;50.22
63568;BME280;49715;42.386;20.434;2023-02-17T08:41:27;98573.53;;;6.65;50.30
63568;BME280;49715;42.386;20.434;2023-02-17T08:43:55;98577.16;;;6.77;50.20
63568;BME280;49715;42.386;20.434;2023-02-17T08:46:22;98572.91;;;6.89;50.04
63568;BME280;49715;42.386;20.434;2023-02-17T08:48:48;98575.47;;;7.03;49.85
63568;BME280;49715;42.386;20.434;2023-02-17T08:51:15;98575.50;;;7.16;49.14
63568;BME280;49715;42.386;20.434;2023-02-17T08:53:42;98574.69;;;7.28;50.04
63568;BME280;49715;42.386;20.434;2023-02-17T08:56:09;98562.00;;;7.35;49.39
63568;BME280;49715;42.386;20.434;2023-02-17T08:58:35;98569.25;;;7.44;49.22
63568;BME280;49715;42.386;20.434;2023-02-17T09:01:01;98568.41;;;7.56;49.06
63568;BME280;49715;42.386;20.434;2023-02-17T09:03:28;98567.59;;;7.68;48.83
63568;BME280;49715;42.386;20.434;2023-02-17T09:05:55;98557.94;;;7.82;48.66
63568;BME280;49715;42.386;20.434;2023-02-17T09:08:22;98560.34;;;7.97;48.67
63568;BME280;49715;42.386;20.434;2023-02-17T09:10:48;98556.13;;;8.08;48.78
63568;BME280;49715;42.386;20.434;2023-02-17T09:13:15;98549.16;;;8.19;48.47
63568;BME280;49715;42.386;20.434;2023-02-17T09:15:41;98548.31;;;8.32;48.41
63568;BME280;49715;42.386;20.434;2023-02-17T09:18:07;98545.56;;;8.46;48.61
63568;BME280;49715;42.386;20.434;2023-02-17T09:20:34;98546.25;;;8.61;48.53
63568;BME280;49715;42.386;20.434;2023-02-17T09:23:00;98543.34;;;8.76;48.21
63568;BME280;49715;42.386;20.434;2023-02-17T09:25:27;98552.53;;;8.95;48.34
63568;BME280;49715;42.386;20.434;2023-02-17T09:27:53;98542.53;;;9.11;48.00
63568;BME280;49715;42.386;20.434;2023-02-17T09:30:19;98541.16;;;9.29;47.87
63568;BME280;49715;42.386;20.434;2023-02-17T09:32:45;98534.53;;;9.48;47.73
63568;BME280;49715;42.386;20.434;2023-02-17T09:35:15;98533.34;;;9.63;47.41
63568;BME280;49715;42.386;20.434;2023-02-17T09:37:42;98532.16;;;9.78;47.36
63568;BME280;49715;42.386;20.434;2023-02-17T09:43:17;98519.69;;;10.14;47.09
63568;BME280;49715;42.386;20.434;2023-02-17T09:45:46;98528.59;;;10.24;47.32
63568;BME280;49715;42.386;20.434;2023-02-17T09:48:15;98521.53;;;10.36;46.87
63568;BME280;49715;42.386;20.434;2023-02-17T09:53:36;98513.72;;;10.78;46.78
63568;BME280;49715;42.386;20.434;2023-02-17T09:56:04;98512.06;;;11.09;46.32
63568;BME280;49715;42.386;20.434;2023-02-17T09:58:36;98504.72;;;11.33;45.87
63568;BME280;49715;42.386;20.434;2023-02-17T10:01:05;98502.06;;;11.54;45.96
63568;BME280;49715;42.386;20.434;2023-02-17T10:03:38;98501.19;;;11.75;45.39
63568;BME280;49715;42.386;20.434;2023-02-17T10:08:56;98498.16;;;12.10;44.64
63568;BME280;49715;42.386;20.434;2023-02-17T10:13:50;98495.91;;;12.36;43.99
63568;BME280;49715;42.386;20.434;2023-02-17T10:16:22;98498.28;;;12.49;43.89
63568;BME280;49715;42.386;20.434;2023-02-17T10:18:53;98491.34;;;12.57;43.84
63568;BME280;49715;42.386;20.434;2023-02-17T10:21:32;98486.06;;;12.67;43.88
63568;BME280;49715;42.386;20.434;2023-02-17T10:24:03;98477.03;;;12.79;43.61
63568;BME280;49715;42.386;20.434;2023-02-17T10:37:04;98465.72;;;13.26;42.25
63568;BME280;49715;42.386;20.434;2023-02-17T10:42:13;98454.66;;;13.50;42.23
63568;BME280;49715;42.386;20.434;2023-02-17T10:44:41;98451.16;;;13.59;42.07
63568;BME280;49715;42.386;20.434;2023-02-17T10:47:07;98446.81;;;13.68;42.04
63568;BME280;49715;42.386;20.434;2023-02-17T10:49:36;98443.81;;;13.80;41.98
63568;BME280;49715;42.386;20.434;2023-02-17T10:52:12;98434.47;;;13.86;41.45
63568;BME280;49715;42.386;20.434;2023-02-17T10:54:41;98433.72;;;13.94;41.98
63568;BME280;49715;42.386;20.434;2023-02-17T10:57:09;98431.00;;;14.03;41.91
63568;BME280;49715;42.386;20.434;2023-02-17T10:59:42;98425.94;;;14.10;40.93
63568;BME280;49715;42.386;20.434;2023-02-17T11:04:46;98416.22;;;14.28;41.57
63568;BME280;49715;42.386;20.434;2023-02-17T11:07:14;98422.44;;;14.37;41.27
63568;BME280;49715;42.386;20.434;2023-02-17T11:09:45;98411.91;;;14.45;41.13
63568;BME280;49715;42.386;20.434;2023-02-17T11:14:42;98410.56;;;14.59;40.41
63568;BME280;49715;42.386;20.434;2023-02-17T11:19:55;98412.56;;;14.75;40.24
63568;BME280;49715;42.386;20.434;2023-02-17T11:22:25;98423.22;;;14.83;39.40
63568;BME280;49715;42.386;20.434;2023-02-17T11:24:58;98405.34;;;14.85;40.20
63568;BME280;49715;42.386;20.434;2023-02-17T11:27:25;98394.56;;;14.86;40.32
63568;BME280;49715;42.386;20.434;2023-02-17T11:29:51;98399.25;;;14.92;40.49
63568;BME280;49715;42.386;20.434;2023-02-17T11:32:17;98390.16;;;14.95;40.38
63568;BME280;49715;42.386;20.434;2023-02-17T11:34:54;98385.75;;;15.04;40.53
63568;BME280;49715;42.386;20.434;2023-02-17T11:37:21;98382.66;;;15.16;39.36
63568;BME280;49715;42.386;20.434;2023-02-17T11:39:53;98379.25;;;15.32;39.79
63568;BME280;49715;42.386;20.434;2023-02-17T11:44:45;98377.25;;;15.60;39.75
63568;BME280;49715;42.386;20.434;2023-02-17T11:47:22;98372.00;;;15.68;39.99
63568;BME280;49715;42.386;20.434;2023-02-17T11:49:55;98376.69;;;15.75;39.74
63568;BME280;49715;42.386;20.434;2023-02-17T12:13:01;98347.44;;;16.50;38.53
63568;BME280;49715;42.386;20.434;2023-02-17T12:20:38;98336.97;;;16.56;38.37
63568;BME280;49715;42.386;20.434;2023-02-17T12:36:25;98310.31;;;17.05;37.12
63568;BME280;49715;42.386;20.434;2023-02-17T12:38:55;98309.13;;;17.08;36.87
63568;BME280;49715;42.386;20.434;2023-02-17T12:41:24;98305.75;;;17.22;38.14
63568;BME280;49715;42.386;20.434;2023-02-17T12:43:53;98312.72;;;17.39;38.23
63568;BME280;49715;42.386;20.434;2023-02-17T12:46:22;98323.28;;;17.56;36.73
63568;BME280;49715;42.386;20.434;2023-02-17T12:48:50;98307.59;;;17.69;37.32
63568;BME280;49715;42.386;20.434;2023-02-17T12:51:23;98296.91;;;17.69;36.24
63568;BME280;49715;42.386;20.434;2023-02-17T12:54:02;98290.56;;;17.70;36.47
63568;BME280;49715;42.386;20.434;2023-02-17T12:56:38;98294.91;;;17.79;37.94
63568;BME280;49715;42.386;20.434;2023-02-17T12:59:13;98286.56;;;17.82;35.87
63568;BME280;49715;42.386;20.434;2023-02-17T13:01:43;98290.47;;;17.94;37.21
63568;BME280;49715;42.386;20.434;2023-02-17T13:04:14;98297.06;;;18.07;36.86
63568;BME280;49715;42.386;20.434;2023-02-17T13:06:42;98292.03;;;18.12;36.66
63568;BME280;49715;42.386;20.434;2023-02-17T13:11:40;98308.91;;;18.04;37.31
63568;BME280;49715;42.386;20.434;2023-02-17T13:16:51;98294.22;;;18.08;35.92
63568;BME280;49715;42.386;20.434;2023-02-17T13:19:27;98291.56;;;18.08;36.02
63568;BME280;49715;42.386;20.434;2023-02-17T13:21:55;98292.38;;;18.09;37.19
63568;BME280;49715;42.386;20.434;2023-02-17T13:24:33;98289.72;;;18.09;36.47
63568;BME280;49715;42.386;20.434;2023-02-17T13:27:19;98288.69;;;18.10;37.17
63568;BME280;49715;42.386;20.434;2023-02-17T13:29:56;98277.16;;;18.17;36.63
63568;BME280;49715;42.386;20.434;2023-02-17T13:32:33;98271.38;;;18.28;37.29
63568;BME280;49715;42.386;20.434;2023-02-17T13:35:16;98276.38;;;18.32;37.58
63568;BME280;49715;42.386;20.434;2023-02-17T13:37:52;98287.97;;;18.39;36.61
63568;BME280;49715;42.386;20.434;2023-02-17T13:42:46;98270.97;;;18.40;36.35
63568;BME280;49715;42.386;20.434;2023-02-17T13:47:39;98258.59;;;18.01;36.64
63568;BME280;49715;42.386;20.434;2023-02-17T13:50:20;98259.59;;;18.00;36.46
63568;BME280;49715;42.386;20.434;2023-02-17T13:52:50;98256.69;;;17.87;36.41
63568;BME280;49715;42.386;20.434;2023-02-17T13:55:17;98261.44;;;17.77;37.19
63568;BME280;49715;42.386;20.434;2023-02-17T13:57:43;98268.59;;;17.68;36.72
63568;BME280;49715;42.386;20.434;2023-02-17T14:05:35;98270.03;;;17.87;37.42
63568;BME280;49715;42.386;20.434;2023-02-17T14:08:03;98263.78;;;17.94;37.78
63568;BME280;49715;42.386;20.434;2023-02-17T14:10:29;98273.09;;;17.98;37.40
63568;BME280;49715;42.386;20.434;2023-02-17T14:12:56;98265.16;;;17.90;37.66
63568;BME280;49715;42.386;20.434;2023-02-17T14:15:24;98260.53;;;17.84;37.44
63568;BME280;49715;42.386;20.434;2023-02-17T14:17:51;98259.78;;;17.67;37.29
63568;BME280;49715;42.386;20.434;2023-02-17T14:23:00;98275.38;;;17.47;35.64
63568;BME280;49715;42.386;20.434;2023-02-17T14:25:28;98261.19;;;17.47;36.76
63568;BME280;49715;42.386;20.434;2023-02-17T14:27:55;98262.66;;;17.58;38.20
63568;BME280;49715;42.386;20.434;2023-02-17T14:33:39;98257.41;;;17.72;36.99
63568;BME280;49715;42.386;20.434;2023-02-17T14:35:54;98259.94;;;17.66;36.41
63568;BME280;49715;42.386;20.434;2023-02-17T14:38:22;98255.44;;;17.74;36.72
63568;BME280;49715;42.386;20.434;2023-02-17T14:40:48;98255.91;;;17.78;37.01
63568;BME280;49715;42.386;20.434;2023-02-17T14:43:15;98259.41;;;17.70;36.09
63568;BME280;49715;42.386;20.434;2023-02-17T14:46:04;98260.00;;;17.58;36.03
63568;BME280;49715;42.386;20.434;2023-02-17T14:48:30;98239.75;;;17.40;37.32
63568;BME280;49715;42.386;20.434;2023-02-17T14:50:56;98259.53;;;17.46;37.07
63568;BME280;49715;42.386;20.434;2023-02-17T14:53:27;98276.19;;;17.48;37.59
63568;BME280;49715;42.386;20.434;2023-02-17T14:58:46;98272.19;;;17.52;38.56
63568;BME280;49715;42.386;20.434;2023-02-17T15:01:14;98273.84;;;17.53;37.04
63568;BME280;49715;42.386;20.434;2023-02-17T15:03:40;98264.53;;;17.49;37.96
63568;BME280;49715;42.386;20.434;2023-02-17T15:06:13;98265.38;;;17.41;36.52
63568;BME280;49715;42.386;20.434;2023-02-17T15:08:41;98267.75;;;17.36;38.29